createdAt,value
2022-08-23T00:02:02.613Z,83.35
2022-08-23T00:04:39.651Z,83.66
2022-08-23T00:07:24.053Z,83.35
2022-08-23T00:09:51.750Z,83.12
2022-08-23T00:12:22.324Z,82.53
2022-08-23T00:14:53.943Z,82.61
2022-08-23T00:17:34.508Z,82.37
2022-08-23T00:20:08.785Z,81.75
2022-08-23T00:22:39.622Z,81.65
2022-08-23T00:25:10.165Z,81.70
2022-08-23T00:27:38.018Z,81.58
2022-08-23T00:30:10.302Z,81.17
2022-08-23T00:32:39.382Z,82.06
2022-08-23T00:35:10.871Z,82.07
2022-08-23T00:37:39.317Z,81.82
2022-08-23T00:40:09.776Z,81.75
2022-08-23T00:43:01.264Z,81.60
2022-08-23T00:46:04.210Z,81.23
2022-08-23T00:48:34.690Z,81.25
2022-08-23T00:51:27.729Z,81.13
2022-08-23T00:54:01.333Z,80.96
2022-08-23T00:56:33.784Z,80.83
2022-08-23T00:59:01.362Z,81.33
2022-08-23T01:01:29.058Z,81.66
2022-08-23T01:04:04.270Z,82.09
2022-08-23T01:06:44.446Z,82.34
2022-08-23T01:09:16.576Z,82.06
2022-08-23T01:12:15.579Z,82.09
2022-08-23T01:15:02.358Z,81.80
2022-08-23T01:17:43.269Z,81.31
2022-08-23T01:20:17.270Z,80.82
2022-08-23T01:23:06.954Z,80.65
2022-08-23T01:25:34.547Z,81.29
2022-08-23T01:28:02.032Z,81.43
2022-08-23T01:30:32.960Z,80.95
2022-08-23T01:33:05.341Z,80.25
2022-08-23T01:35:41.025Z,80.53
2022-08-23T01:38:09.804Z,81.07
2022-08-23T01:40:37.978Z,80.76
2022-08-23T01:43:06.673Z,80.36
2022-08-23T01:45:35.357Z,81.48
2022-08-23T01:48:03.524Z,82.33
2022-08-23T01:50:31.771Z,82.91
2022-08-23T01:53:00.273Z,83.51
2022-08-23T01:55:29.288Z,83.58
2022-08-23T01:58:00.009Z,83.57
2022-08-23T02:00:33.583Z,84.12
2022-08-23T02:03:02.322Z,84.18
2022-08-23T02:05:31.299Z,84.55
2022-08-23T02:08:18.821Z,84.48
2022-08-23T02:10:46.693Z,83.69
2022-08-23T02:13:15.103Z,83.80
2022-08-23T02:15:44.370Z,83.46
2022-08-23T02:18:12.341Z,83.37
2022-08-23T02:20:49.268Z,83.84
2022-08-23T02:23:18.200Z,83.97
2022-08-23T02:25:45.349Z,84.39
2022-08-23T02:28:12.744Z,84.34
2022-08-23T02:30:40.110Z,84.18
2022-08-23T02:33:08.958Z,84.47
2022-08-23T02:35:38.361Z,83.78
2022-08-23T02:38:08.577Z,83.36
2022-08-23T02:40:37.450Z,83.44
2022-08-23T02:43:06.976Z,83.88
2022-08-23T02:45:36.572Z,83.88
2022-08-23T02:48:07.691Z,83.64
2022-08-23T02:50:42.353Z,84.00
2022-08-23T02:53:09.629Z,83.81
2022-08-23T02:55:38.108Z,83.62
2022-08-23T02:58:05.548Z,83.44
2022-08-23T03:00:32.764Z,83.56
2022-08-23T03:03:00.050Z,83.54
2022-08-23T03:05:27.501Z,83.33
2022-08-23T03:07:55.254Z,83.28
2022-08-23T03:10:22.922Z,83.48
2022-08-23T03:12:54.994Z,83.78
2022-08-23T03:15:22.806Z,83.78
2022-08-23T03:17:50.623Z,83.55
2022-08-23T03:20:18.796Z,83.69
2022-08-23T03:22:48.369Z,83.34
2022-08-23T03:25:22.801Z,83.21
2022-08-23T03:28:32.874Z,82.09
2022-08-23T03:31:00.137Z,82.33
2022-08-23T03:33:27.482Z,82.39
2022-08-23T03:35:59.995Z,82.68
2022-08-23T03:38:27.515Z,82.61
2022-08-23T03:40:54.875Z,82.94
2022-08-23T03:43:24.264Z,83.19
2022-08-23T03:45:51.828Z,83.32
2022-08-23T03:48:20.104Z,83.33
2022-08-23T03:50:47.965Z,83.71
2022-08-23T03:53:15.973Z,83.28
2022-08-23T03:55:44.540Z,83.23
2022-08-23T03:58:14.855Z,83.07
2022-08-23T04:00:42.719Z,82.44
2022-08-23T04:03:10.281Z,82.36
2022-08-23T04:05:51.867Z,82.10
2022-08-23T04:08:31.851Z,82.45
2022-08-23T04:11:02.094Z,80.90
2022-08-23T04:13:30.245Z,80.99
2022-08-23T04:15:58.614Z,82.54
2022-08-23T04:18:26.175Z,83.08
2022-08-23T04:20:53.604Z,83.49
2022-08-23T04:23:22.213Z,82.79
2022-08-23T04:25:53.536Z,82.67
2022-08-23T04:28:22.159Z,81.84
2022-08-23T04:30:51.140Z,81.81
2022-08-23T04:33:19.182Z,81.66
2022-08-23T04:35:48.718Z,81.42
2022-08-23T04:38:24.913Z,81.94
2022-08-23T04:41:17.514Z,82.61
2022-08-23T04:43:46.572Z,82.56
2022-08-23T04:46:15.174Z,82.07
2022-08-23T04:48:44.625Z,80.37
2022-08-23T04:51:13.067Z,79.99
2022-08-23T04:53:41.594Z,80.31
2022-08-23T04:56:51.845Z,80.85
2022-08-23T04:59:20.474Z,81.58
2022-08-23T05:01:50.340Z,81.93
2022-08-23T05:04:17.954Z,81.58
2022-08-23T05:06:45.588Z,81.62
2022-08-23T05:09:17.119Z,80.87
2022-08-23T05:11:49.068Z,80.93
2022-08-23T05:14:17.042Z,80.77
2022-08-23T05:16:45.003Z,80.37
2022-08-23T05:19:12.457Z,81.17
2022-08-23T05:21:44.118Z,80.81
2022-08-23T05:24:13.761Z,80.89
2022-08-23T05:26:42.889Z,80.33
2022-08-23T05:29:10.849Z,80.04
2022-08-23T05:31:46.274Z,80.02
2022-08-23T05:34:15.798Z,79.79
2022-08-23T05:36:55.729Z,79.57
2022-08-23T05:39:36.163Z,79.47
2022-08-23T05:42:09.214Z,79.31
2022-08-23T05:44:37.353Z,79.63
2022-08-23T05:47:10.512Z,79.86
2022-08-23T05:50:17.169Z,79.92
2022-08-23T05:52:49.023Z,79.84
2022-08-23T05:55:18.765Z,79.78
2022-08-23T05:57:57.267Z,79.50
2022-08-23T06:00:28.392Z,78.80
2022-08-23T06:03:08.648Z,78.95
2022-08-23T06:05:41.378Z,78.55
2022-08-23T06:08:08.621Z,78.21
2022-08-23T06:10:40.497Z,77.60
2022-08-23T06:13:21.572Z,76.48
2022-08-23T06:15:49.253Z,76.71
2022-08-23T06:18:16.397Z,77.44
2022-08-23T06:20:43.742Z,77.15
2022-08-23T06:23:17.193Z,76.24
2022-08-23T06:25:45.017Z,76.21
2022-08-23T06:28:15.119Z,76.27
2022-08-23T06:30:43.044Z,75.45
2022-08-23T06:33:26.796Z,75.58
2022-08-23T06:36:50.007Z,75.67
2022-08-23T06:39:37.633Z,75.97
2022-08-23T06:42:45.193Z,75.59
2022-08-23T06:45:13.946Z,75.14
2022-08-23T06:47:42.726Z,75.06
2022-08-23T06:50:10.913Z,74.24
2022-08-23T06:52:56.886Z,73.01
2022-08-23T06:55:35.980Z,73.36
2022-08-23T06:58:27.730Z,73.01
2022-08-23T07:01:54.709Z,73.21
2022-08-23T07:04:35.126Z,72.73
2022-08-23T07:07:15.860Z,72.55
2022-08-23T07:09:43.482Z,71.43
2022-08-23T07:12:11.446Z,71.43
2022-08-23T07:14:42.029Z,70.17
2022-08-23T07:17:09.294Z,69.65
2022-08-23T07:19:36.521Z,69.19
2022-08-23T07:22:05.766Z,68.82
2022-08-23T07:24:33.918Z,68.60
2022-08-23T07:27:09.136Z,68.97
2022-08-23T07:29:45.716Z,68.65
2022-08-23T07:32:13.315Z,68.87
2022-08-23T07:34:40.489Z,68.81
2022-08-23T07:37:11.226Z,68.32
2022-08-23T07:39:44.146Z,67.19
2022-08-23T07:42:22.848Z,67.94
2022-08-23T07:44:53.296Z,68.00
2022-08-23T07:47:22.542Z,67.51
2022-08-23T07:49:50.593Z,67.40
2022-08-23T07:52:18.058Z,66.99
2022-08-23T07:54:49.465Z,66.64
2022-08-23T07:57:37.825Z,65.76
2022-08-23T08:00:11.574Z,65.75
2022-08-23T08:02:53.000Z,65.41
2022-08-23T08:05:25.801Z,65.03
2022-08-23T08:07:53.277Z,64.68
2022-08-23T08:10:20.617Z,65.03
2022-08-23T08:12:48.162Z,64.54
2022-08-23T08:15:19.209Z,64.20
2022-08-23T08:17:51.085Z,64.59
2022-08-23T08:20:19.800Z,64.04
2022-08-23T08:23:05.993Z,63.78
2022-08-23T08:26:08.536Z,62.89
2022-08-23T08:28:37.460Z,63.44
2022-08-23T08:31:09.083Z,63.81
2022-08-23T08:33:36.722Z,63.47
2022-08-23T08:36:06.343Z,62.94
2022-08-23T08:38:50.292Z,62.52
2022-08-23T08:41:28.923Z,61.05
2022-08-23T08:44:23.630Z,60.92
2022-08-23T08:46:58.835Z,61.68
2022-08-23T08:50:14.125Z,61.19
2022-08-23T08:53:13.117Z,61.13
2022-08-23T08:56:39.493Z,61.41
2022-08-23T08:59:38.710Z,62.03
2022-08-23T09:02:16.931Z,61.92
2022-08-23T09:04:57.886Z,60.78
2022-08-23T09:07:56.642Z,59.77
2022-08-23T09:10:35.611Z,60.21
2022-08-23T09:13:53.168Z,60.51
2022-08-23T09:16:32.413Z,58.84
2022-08-23T09:19:02.927Z,59.35
2022-08-23T09:21:46.934Z,59.11
2022-08-23T09:24:14.730Z,59.14
2022-08-23T09:26:53.696Z,58.55
2022-08-23T09:29:27.214Z,59.40
2022-08-23T09:32:01.914Z,58.80
2022-08-23T09:34:30.438Z,59.30
2022-08-23T09:37:22.487Z,59.07
2022-08-23T09:40:12.408Z,58.71
2022-08-23T09:42:41.774Z,58.60
2022-08-23T09:45:37.159Z,58.72
2022-08-23T09:48:11.569Z,58.64
2022-08-23T09:50:54.351Z,57.83
2022-08-23T09:53:29.449Z,58.07
2022-08-23T09:56:11.265Z,58.08
2022-08-23T09:58:53.293Z,57.31
2022-08-23T10:01:38.892Z,57.25
2022-08-23T10:04:11.792Z,57.83
2022-08-23T10:06:41.550Z,57.12
2022-08-23T10:09:21.224Z,55.44
2022-08-23T10:11:49.216Z,55.94
2022-08-23T10:14:20.944Z,55.82
2022-08-23T10:17:33.764Z,55.97
2022-08-23T10:20:37.545Z,55.34
2022-08-23T10:23:50.390Z,54.93
2022-08-23T10:26:34.757Z,55.34
2022-08-23T10:29:29.793Z,55.54
2022-08-23T10:32:15.252Z,53.51
2022-08-23T10:35:26.166Z,52.93
2022-08-23T10:38:30.206Z,53.99
2022-08-23T10:41:32.544Z,52.58
2022-08-23T10:45:05.605Z,52.72
2022-08-23T10:47:43.983Z,51.65
2022-08-23T10:50:20.400Z,51.55
2022-08-23T10:53:10.456Z,50.59
2022-08-23T10:56:02.414Z,50.39
2022-08-23T10:59:00.616Z,50.96
2022-08-23T11:01:50.701Z,51.03
2022-08-23T11:04:43.096Z,49.73
2022-08-23T11:07:25.494Z,49.54
2022-08-23T11:10:16.298Z,49.06
2022-08-23T11:13:10.645Z,48.30
2022-08-23T11:15:58.822Z,48.91
2022-08-23T11:18:48.485Z,49.03
2022-08-23T11:21:33.054Z,47.93
2022-08-23T11:24:03.784Z,47.44
2022-08-23T11:26:37.625Z,46.85
2022-08-23T11:29:10.324Z,46.60
2022-08-23T11:31:58.128Z,46.66
2022-08-23T11:34:57.384Z,46.67
2022-08-23T11:37:30.677Z,45.87
2022-08-23T11:40:07.735Z,45.86
2022-08-23T11:42:38.420Z,45.20
2022-08-23T11:45:27.024Z,45.73
2022-08-23T11:48:43.492Z,46.03
2022-08-23T11:52:00.496Z,46.05
2022-08-23T11:55:17.052Z,45.56
2022-08-23T11:58:23.804Z,46.10
2022-08-23T12:00:55.129Z,45.93
2022-08-23T12:03:33.260Z,45.75
2022-08-23T12:06:35.346Z,45.26
2022-08-23T12:09:15.179Z,45.33
2022-08-23T12:11:57.108Z,45.01
2022-08-23T12:14:30.401Z,45.13
2022-08-23T12:17:29.752Z,44.27
2022-08-23T12:20:16.523Z,43.91
2022-08-23T12:22:59.645Z,44.17
2022-08-23T12:25:29.955Z,43.43
2022-08-23T12:28:07.132Z,41.54
2022-08-23T12:31:07.825Z,42.12
2022-08-23T12:34:19.649Z,41.92
2022-08-23T12:36:59.192Z,41.71
2022-08-23T12:39:40.719Z,41.10
2022-08-23T12:42:17.824Z,40.95
2022-08-23T12:44:57.522Z,40.94
2022-08-23T12:47:24.882Z,40.21
2022-08-23T12:50:06.005Z,40.95
2022-08-23T12:52:36.801Z,41.23
2022-08-23T12:55:16.377Z,40.84
2022-08-23T12:57:53.905Z,40.06
2022-08-23T13:00:33.918Z,39.03
2022-08-23T13:03:14.097Z,39.13
2022-08-23T13:05:47.990Z,39.13
2022-08-23T13:08:34.198Z,39.48
2022-08-23T13:11:08.058Z,39.12
2022-08-23T13:13:40.884Z,38.40
2022-08-23T13:16:44.194Z,38.98
2022-08-23T13:19:27.496Z,37.73
2022-08-23T13:22:23.188Z,37.83
2022-08-23T13:25:29.130Z,38.21
2022-08-23T13:28:20.358Z,37.57
2022-08-23T13:31:07.570Z,36.83
2022-08-23T13:33:35.320Z,36.90
2022-08-23T13:36:17.020Z,37.06
2022-08-23T13:38:44.985Z,37.39
2022-08-23T13:41:38.801Z,37.36
2022-08-23T13:44:08.582Z,38.15
2022-08-23T13:46:44.841Z,38.86
2022-08-23T13:49:28.049Z,38.02
2022-08-23T13:52:24.581Z,38.30
2022-08-23T13:54:51.354Z,38.15
2022-08-23T13:57:21.722Z,38.21
2022-08-23T13:59:55.543Z,37.96
2022-08-23T14:02:24.927Z,39.09
2022-08-23T14:04:52.826Z,38.82
2022-08-23T14:07:20.865Z,38.76
2022-08-23T14:09:51.992Z,39.33
2022-08-23T14:12:25.405Z,39.38
2022-08-23T14:15:00.281Z,39.53
2022-08-23T14:17:28.182Z,39.64
2022-08-23T14:20:32.987Z,39.51
2022-08-23T14:22:43.484Z,38.78
2022-08-23T14:25:12.292Z,38.82
2022-08-23T14:27:43.140Z,38.71
2022-08-23T14:30:36.266Z,38.91
2022-08-23T14:33:06.308Z,38.93
2022-08-23T14:35:33.755Z,39.47
2022-08-23T14:38:04.010Z,39.99
2022-08-23T14:40:35.851Z,40.08
2022-08-23T14:43:05.368Z,40.82
2022-08-23T14:45:33.003Z,41.35
2022-08-23T14:48:01.659Z,41.20
2022-08-23T14:50:29.372Z,41.26
2022-08-23T14:52:57.490Z,40.99
2022-08-23T14:55:25.283Z,40.97
2022-08-23T14:57:53.136Z,41.21
2022-08-23T15:00:20.719Z,41.56
2022-08-23T15:02:49.700Z,41.45
2022-08-23T15:05:17.863Z,41.53
2022-08-23T15:07:45.639Z,41.72
2022-08-23T15:13:20.009Z,40.82
2022-08-23T15:15:52.607Z,40.80
2022-08-23T15:18:20.414Z,40.77
2022-08-23T15:20:49.010Z,40.95
2022-08-23T15:23:20.486Z,41.01
2022-08-23T15:25:47.713Z,41.82
2022-08-23T15:28:18.697Z,41.57
2022-08-23T15:30:48.736Z,41.26
2022-08-23T15:33:16.101Z,41.19
2022-08-23T15:35:48.992Z,40.69
2022-08-23T15:38:21.229Z,40.47
2022-08-23T15:40:51.026Z,40.28
2022-08-23T15:43:20.789Z,40.42
2022-08-23T15:45:48.884Z,40.87
2022-08-23T15:48:22.451Z,41.10
2022-08-23T15:50:50.108Z,41.42
2022-08-23T15:53:21.196Z,41.38
2022-08-23T15:55:49.133Z,41.45
2022-08-23T15:58:22.476Z,41.44
2022-08-23T16:00:51.455Z,41.28
2022-08-23T16:03:21.474Z,41.09
2022-08-23T16:05:53.213Z,41.39
2022-08-23T16:08:41.052Z,41.53
2022-08-23T16:11:12.368Z,41.64
2022-08-23T16:13:43.306Z,41.93
2022-08-23T16:16:26.466Z,42.10
2022-08-23T16:18:55.125Z,42.32
2022-08-23T16:21:25.010Z,42.64
2022-08-23T16:23:55.053Z,43.18
2022-08-23T16:26:33.514Z,43.51
2022-08-23T16:29:07.843Z,43.62
2022-08-23T16:31:38.729Z,43.70
2022-08-23T16:34:14.271Z,44.24
2022-08-23T16:36:47.248Z,44.60
2022-08-23T16:39:16.764Z,44.89
2022-08-23T16:41:44.527Z,45.09
2022-08-23T16:44:12.181Z,45.60
2022-08-23T16:46:42.313Z,46.08
2022-08-23T16:49:12.735Z,46.89
2022-08-23T16:51:40.993Z,47.02
2022-08-23T16:54:09.109Z,47.06
2022-08-23T16:56:38.582Z,46.98
2022-08-23T16:59:09.619Z,47.23
2022-08-23T17:01:47.631Z,47.25
2022-08-23T17:04:17.074Z,47.90
2022-08-23T17:06:46.025Z,48.04
2022-08-23T17:09:13.673Z,47.86
2022-08-23T17:11:43.489Z,47.98
2022-08-23T17:14:12.488Z,48.37
2022-08-23T17:16:41.847Z,48.82
2022-08-23T17:19:11.391Z,48.72
2022-08-23T17:21:40.014Z,48.95
2022-08-23T17:24:07.633Z,49.02
2022-08-23T17:26:35.737Z,49.18
2022-08-23T17:29:04.266Z,49.38
2022-08-23T17:31:31.661Z,49.63
2022-08-23T17:34:02.913Z,50.10
2022-08-23T17:36:33.930Z,50.04
2022-08-23T17:39:05.681Z,50.00
2022-08-23T17:41:35.246Z,50.73
2022-08-23T17:44:05.561Z,50.90
2022-08-23T17:46:41.737Z,50.29
2022-08-23T17:49:10.783Z,50.76
2022-08-23T17:51:42.840Z,50.93
2022-08-23T17:54:16.016Z,50.98
2022-08-23T17:56:49.936Z,50.68
2022-08-23T17:59:19.591Z,50.64
2022-08-23T18:01:47.312Z,50.60
2022-08-23T18:04:14.928Z,50.72
2022-08-23T18:06:42.633Z,51.04
2022-08-23T18:09:10.596Z,51.18
2022-08-23T18:11:38.598Z,51.16
2022-08-23T18:14:06.130Z,51.28
2022-08-23T18:16:35.795Z,51.73
2022-08-23T18:19:07.109Z,52.07
2022-08-23T18:21:40.290Z,51.88
2022-08-23T18:24:08.942Z,52.07
2022-08-23T18:26:55.153Z,52.29
2022-08-23T18:29:23.837Z,52.38
2022-08-23T18:31:51.511Z,52.61
2022-08-23T18:34:19.313Z,52.83
2022-08-23T18:36:47.043Z,52.88
2022-08-23T18:39:15.846Z,53.01
2022-08-23T18:41:43.201Z,53.09
2022-08-23T18:44:11.498Z,53.55
2022-08-23T18:46:41.879Z,53.65
2022-08-23T18:49:11.481Z,53.84
2022-08-23T18:51:41.021Z,54.34
2022-08-23T18:54:09.359Z,54.73
2022-08-23T18:56:37.028Z,54.56
2022-08-23T18:59:06.358Z,54.31
2022-08-23T19:01:39.298Z,54.34
2022-08-23T19:04:09.155Z,54.72
2022-08-23T19:06:37.372Z,54.73
2022-08-23T19:09:06.491Z,54.36
2022-08-23T19:11:34.664Z,54.05
2022-08-23T19:14:01.826Z,53.57
2022-08-23T19:16:30.699Z,53.15
2022-08-23T19:18:58.670Z,53.15
2022-08-23T19:21:26.956Z,53.18
2022-08-23T19:23:56.757Z,52.70
2022-08-23T19:26:31.422Z,52.62
2022-08-23T19:29:00.826Z,51.96
2022-08-23T19:31:33.837Z,51.85
2022-08-23T19:34:03.876Z,51.63
2022-08-23T19:36:45.729Z,51.60
2022-08-23T19:39:14.861Z,51.73
2022-08-23T19:41:42.242Z,51.92
2022-08-23T19:44:10.091Z,51.53
2022-08-23T19:46:40.843Z,51.10
2022-08-23T19:49:11.267Z,51.08
2022-08-23T19:51:39.377Z,51.09
2022-08-23T19:54:11.424Z,51.10
2022-08-23T19:56:48.251Z,50.95
2022-08-23T19:59:25.053Z,50.82
2022-08-23T20:01:55.102Z,50.49
2022-08-23T20:04:24.161Z,50.56
2022-08-23T20:06:51.727Z,50.76
2022-08-23T20:09:21.873Z,50.65
2022-08-23T20:11:52.301Z,50.82
2022-08-23T20:14:21.490Z,50.81
2022-08-23T20:16:49.979Z,50.53
2022-08-23T20:19:17.401Z,50.52
2022-08-23T20:21:44.971Z,50.17
2022-08-23T20:24:14.770Z,50.24
2022-08-23T20:26:49.670Z,50.20
2022-08-23T20:29:21.703Z,50.48
2022-08-23T20:31:59.825Z,50.78
2022-08-23T20:34:30.233Z,50.85
2022-08-23T20:36:58.130Z,51.20
2022-08-23T20:39:25.739Z,51.21
2022-08-23T20:41:54.422Z,51.37
2022-08-23T20:44:25.418Z,51.33
2022-08-23T20:46:54.886Z,51.27
2022-08-23T20:49:25.794Z,51.52
2022-08-23T20:51:53.970Z,51.63
2022-08-23T20:54:21.638Z,51.98
2022-08-23T20:56:51.414Z,52.03
2022-08-23T20:59:19.304Z,51.81
2022-08-23T21:01:48.184Z,51.66
2022-08-23T21:04:16.893Z,50.99
2022-08-23T21:06:51.813Z,50.92
2022-08-23T21:09:24.688Z,51.06
2022-08-23T21:11:57.377Z,51.03
2022-08-23T21:14:25.146Z,51.30
2022-08-23T21:16:52.301Z,51.50
2022-08-23T21:19:20.433Z,51.29
2022-08-23T21:21:48.532Z,51.31
2022-08-23T21:24:15.796Z,51.37
2022-08-23T21:26:43.153Z,51.51
2022-08-23T21:29:10.808Z,51.22
2022-08-23T21:31:39.359Z,51.66
2022-08-23T21:34:07.979Z,51.59
2022-08-23T21:36:36.159Z,51.65
2022-08-23T21:39:04.836Z,51.75
2022-08-23T21:41:43.028Z,51.70
2022-08-23T21:44:18.280Z,52.31
2022-08-23T21:46:47.366Z,52.33
2022-08-23T21:49:15.723Z,52.34
2022-08-23T21:51:44.484Z,52.20
2022-08-23T21:54:13.639Z,52.55
2022-08-23T21:56:42.008Z,52.93
2022-08-23T21:59:14.077Z,52.39
2022-08-23T22:01:42.521Z,51.84
2022-08-23T22:04:12.714Z,51.70
2022-08-23T22:06:42.907Z,51.42
2022-08-23T22:09:15.270Z,51.79
2022-08-23T22:11:44.478Z,51.63
2022-08-23T22:14:17.150Z,51.55
2022-08-23T22:16:44.305Z,51.66
2022-08-23T22:19:14.938Z,51.41
2022-08-23T22:21:45.830Z,51.91
2022-08-23T22:24:13.686Z,51.71
2022-08-23T22:26:42.359Z,51.83
2022-08-23T22:29:11.144Z,52.35
2022-08-23T22:31:39.322Z,53.27
2022-08-23T22:34:09.399Z,54.03
2022-08-23T22:36:36.760Z,56.07
2022-08-23T22:39:04.821Z,57.93
2022-08-23T22:41:32.691Z,58.11
2022-08-23T22:44:02.278Z,58.00
2022-08-23T22:46:33.206Z,57.72
2022-08-23T22:49:01.211Z,57.30
2022-08-23T22:51:32.254Z,57.41
2022-08-23T22:54:07.490Z,57.34
2022-08-23T22:56:44.183Z,57.46
2022-08-23T22:59:12.474Z,57.56
2022-08-23T23:01:44.487Z,57.21
2022-08-23T23:04:13.713Z,56.44
2022-08-23T23:06:41.760Z,55.96
2022-08-23T23:09:10.973Z,55.72
2022-08-23T23:11:40.325Z,56.15
2022-08-23T23:14:10.911Z,56.50
2022-08-23T23:16:38.955Z,57.07
2022-08-23T23:19:24.966Z,57.60
2022-08-23T23:21:55.519Z,58.15
2022-08-23T23:24:33.589Z,58.66
2022-08-23T23:27:01.971Z,59.04
2022-08-23T23:29:31.722Z,59.28
2022-08-23T23:31:59.137Z,59.65
2022-08-23T23:34:27.870Z,59.77
2022-08-23T23:36:59.488Z,60.05
2022-08-23T23:39:27.647Z,60.20
2022-08-23T23:41:55.709Z,60.38
2022-08-23T23:44:29.891Z,60.48
2022-08-23T23:47:01.638Z,60.64
2022-08-23T23:49:33.008Z,60.62
2022-08-23T23:52:04.508Z,61.10
2022-08-23T23:54:33.493Z,61.01
2022-08-23T23:57:01.798Z,61.44
2022-08-23T23:59:29.224Z,61.55
